Welcome to Northern Hawkes Bay. New Zealand.
PWS Header
      nz Flag



Hit Counter


W3C Valid W3C Valid logo


    Wairoa

Select any of the Stations below to visit their websites.










Historic Data from Weather Underground
Select the location of interest below. Wairoa is the default. Please have patience, this Data is slow to load in.
Northern Hawkes Bay Historical Data
Daily Summary for January 26, 2017 Units:  Metric    English   Both
« Previous Day
Next Day »
Daily Weekly Monthly Yearly Custom
  High: Low: Average:
Temperature: 27.7 °C 9.8 °C 19.2 °C
Dew Point: 14.8 °C 2.4 °C 9.2 °C
Humidity: 92% 21% 57%
Wind Speed: 28.0km/h 0.0km/h 5.8km/h
Wind Gust: 45.4km/h - -
Wind- - SW
Pressure: 1011.7 hPa 1007.3 hPa -
Precipitation: 0.0 mm    
Historical Graphs
 
 
Tabular Data for January 26, 2017
Time Temperature Dew Point Pressure Wind Wind Speed Wind Gust Humidity Rainfall Rate (Hourly) solar
00:01 17.2 °C 10.1 °C 1008.4 hPa SW 20.9 km/h 37.8 km/h 63% 0.0 mm 0 W/m2
00:06 16.5 °C 10.8 °C 1008.7 hPa South 28.0 km/h 45.4 km/h 69% 0.0 mm 0 W/m2
00:11 16.3 °C 11.1 °C 1009.0 hPa South 25.6 km/h 45.4 km/h 71% 0.0 mm 0 W/m2
00:13 16.3 °C 10.4 °C 1008.7 hPa South 18.3 km/h 45.4 km/h 68% 0.0 mm 0 W/m2
00:18 16.3 °C 10.4 °C 1009.0 hPa South 21.9 km/h 43.9 km/h 68% 0.0 mm 0 W/m2
00:23 16.3 °C 10.4 °C 1009.0 hPa SSW 19.5 km/h 43.9 km/h 68% 0.0 mm 0 W/m2
00:28 16.2 °C 10.1 °C 1008.7 hPa SSW 21.9 km/h 33.1 km/h 67% 0.0 mm 0 W/m2
00:33 16.2 °C 10.1 °C 1009.0 hPa SSW 20.9 km/h 33.1 km/h 67% 0.0 mm 0 W/m2
00:38 16.2 °C 10.1 °C 1009.0 hPa SSW 12.2 km/h 33.1 km/h 67% 0.0 mm 0 W/m2
00:43 16.2 °C 9.8 °C 1009.0 hPa SSW 14.8 km/h 33.1 km/h 66% 0.0 mm 0 W/m2
00:48 16.2 °C 10.1 °C 1008.7 hPa SW 17.2 km/h 30.6 km/h 67% 0.0 mm 0 W/m2
00:53 16.3 °C 9.9 °C 1008.7 hPa SW 24.5 km/h 30.6 km/h 66% 0.0 mm 0 W/m2
00:58 16.3 °C 9.7 °C 1009.0 hPa SW 15.8 km/h 29.4 km/h 65% 0.0 mm 0 W/m2
01:01 16.4 °C 9.6 °C 1009.0 hPa SW 14.8 km/h 29.4 km/h 64% 0.0 mm 0 W/m2
01:06 16.2 °C 9.4 °C 1009.0 hPa SW 13.4 km/h 27.0 km/h 64% 0.0 mm 0 W/m2
01:11 16.1 °C 9.5 °C 1009.0 hPa WSW 8.7 km/h 23.3 km/h 65% 0.0 mm 0 W/m2
01:29 15.9 °C 9.8 °C 1008.7 hPa WSW 8.7 km/h 17.2 km/h 67% 0.0 mm 0 W/m2
01:34 15.9 °C 9.6 °C 1009.0 hPa WSW 7.2 km/h 15.8 km/h 66% 0.0 mm 0 W/m2
01:39 15.8 °C 9.2 °C 1009.0 hPa WSW 7.2 km/h 15.8 km/h 65% 0.0 mm 0 W/m2
01:49 15.8 °C 9.0 °C 1009.0 hPa WSW 3.5 km/h 17.2 km/h 64% 0.0 mm 0 W/m2
01:54 15.6 °C 9.1 °C 1009.0 hPa WSW 5.0 km/h 15.8 km/h 65% 0.0 mm 0 W/m2
01:59 15.6 °C 9.1 °C 1009.0 hPa WSW 2.6 km/h 9.7 km/h 65% 0.0 mm 0 W/m2
02:04 15.5 °C 9.2 °C 1009.0 hPa West 2.6 km/h 9.7 km/h 66% 0.0 mm 0 W/m2
02:09 15.4 °C 9.1 °C 1009.0 hPa West 1.1 km/h 7.2 km/h 66% 0.0 mm 0 W/m2
02:14 15.3 °C 9.2 °C 1009.0 hPa WSW 3.5 km/h 8.7 km/h 67% 0.0 mm 0 W/m2
02:19 15.2 °C 9.3 °C 1009.4 hPa WSW 2.6 km/h 8.7 km/h 68% 0.0 mm 0 W/m2
02:24 15.1 °C 9.2 °C 1009.0 hPa West 1.1 km/h 7.2 km/h 68% 0.0 mm 0 W/m2
02:29 15.0 °C 9.2 °C 1009.4 hPa Calm   7.2 km/h 68% 0.0 mm 0 W/m2
02:34 14.8 °C 9.4 °C 1009.4 hPa WNW 1.1 km/h 5.0 km/h 70% 0.0 mm 0 W/m2
02:39 14.8 °C 9.4 °C 1009.4 hPa NW 2.6 km/h 5.0 km/h 70% 0.0 mm 0 W/m2
02:44 14.7 °C 9.3 °C 1009.4 hPa NW 2.6 km/h 5.0 km/h 70% 0.0 mm 0 W/m2
02:49 14.5 °C 9.1 °C 1009.4 hPa Calm   5.0 km/h 70% 0.0 mm 0 W/m2
02:54 14.3 °C 8.9 °C 1009.4 hPa NW 1.1 km/h 3.5 km/h 70% 0.0 mm 0 W/m2
02:59 14.0 °C 8.8 °C 1009.4 hPa NW 3.5 km/h 5.0 km/h 71% 0.0 mm 0 W/m2
03:04 13.8 °C 9.3 °C 1009.4 hPa NW 2.6 km/h 5.0 km/h 74% 0.0 mm 0 W/m2
03:09 13.5 °C 9.2 °C 1009.4 hPa NNW 2.6 km/h 5.0 km/h 75% 0.0 mm 0 W/m2
03:14 13.3 °C 9.2 °C 1009.4 hPa NNW 2.6 km/h 5.0 km/h 76% 0.0 mm 0 W/m2
03:19 13.1 °C 8.9 °C 1009.4 hPa NNW 1.1 km/h 5.0 km/h 76% 0.0 mm 0 W/m2
03:24 13.0 °C 9.1 °C 1009.4 hPa North 1.1 km/h 5.0 km/h 77% 0.0 mm 0 W/m2
03:29 12.7 °C 8.8 °C 1009.4 hPa NNW 3.5 km/h 5.0 km/h 77% 0.0 mm 0 W/m2
03:34 12.6 °C 8.9 °C 1009.4 hPa NW 2.6 km/h 6.1 km/h 78% 0.0 mm 0 W/m2
03:39 12.5 °C 8.9 °C 1009.0 hPa NW 2.6 km/h 6.1 km/h 79% 0.0 mm 0 W/m2
03:44 12.4 °C 9.1 °C 1009.4 hPa NW 2.6 km/h 6.1 km/h 80% 0.0 mm 0 W/m2
03:49 12.2 °C 9.1 °C 1009.4 hPa NNW 2.6 km/h 6.1 km/h 81% 0.0 mm 0 W/m2
03:54 12.0 °C 9.0 °C 1009.0 hPa NNW 2.6 km/h 6.1 km/h 82% 0.0 mm 0 W/m2
03:59 11.9 °C 9.1 °C 1009.4 hPa NNW 3.5 km/h 6.1 km/h 83% 0.0 mm 0 W/m2
04:04 11.8 °C 9.0 °C 1009.4 hPa North 1.1 km/h 5.0 km/h 83% 0.0 mm 0 W/m2
04:09 11.7 °C 9.1 °C 1009.4 hPa NNW 3.5 km/h 6.1 km/h 84% 0.0 mm 0 W/m2
04:14 11.6 °C 9.0 °C 1009.4 hPa NW 2.6 km/h 6.1 km/h 84% 0.0 mm 0 W/m2
04:19 11.4 °C 8.8 °C 1009.4 hPa NNW 2.6 km/h 6.1 km/h 84% 0.0 mm 0 W/m2
04:24 11.3 °C 8.7 °C 1009.4 hPa NNW 3.5 km/h 6.1 km/h 84% 0.0 mm 0 W/m2
04:29 11.1 °C 8.7 °C 1009.4 hPa NNW 3.5 km/h 6.1 km/h 85% 0.0 mm 0 W/m2
04:34 11.0 °C 8.8 °C 1009.7 hPa NNW 3.5 km/h 6.1 km/h 86% 0.0 mm 0 W/m2
04:39 11.0 °C 8.8 °C 1009.4 hPa NNW 2.6 km/h 6.1 km/h 86% 0.0 mm 0 W/m2
04:44 10.9 °C 8.8 °C 1009.0 hPa NNW 2.6 km/h 6.1 km/h 87% 0.0 mm 0 W/m2
04:49 10.7 °C 8.6 °C 1009.4 hPa NNW 1.1 km/h 5.0 km/h 87% 0.0 mm 0 W/m2
04:54 10.6 °C 8.6 °C 1009.4 hPa NNW 3.5 km/h 5.0 km/h 87% 0.0 mm 0 W/m2
05:00 10.6 °C 8.7 °C 1009.4 hPa NNW 2.6 km/h 5.0 km/h 88% 0.0 mm 0 W/m2
05:05 10.5 °C 8.6 °C 1009.4 hPa NNW 2.6 km/h 5.0 km/h 88% 0.0 mm 0 W/m2
05:10 10.4 °C 8.5 °C 1009.7 hPa NNW 2.6 km/h 5.0 km/h 88% 0.0 mm 0 W/m2
05:15 10.3 °C 8.4 °C 1009.4 hPa NNW 1.1 km/h 5.0 km/h 88% 0.0 mm 0 W/m2
05:20 10.2 °C 8.4 °C 1009.4 hPa NW 2.6 km/h 5.0 km/h 89% 0.0 mm 0 W/m2
05:25 10.1 °C 8.4 °C 1009.7 hPa NW 1.1 km/h 5.0 km/h 89% 0.0 mm 0 W/m2
05:30 10.0 °C 8.3 °C 1009.4 hPa NNW 1.1 km/h 5.0 km/h 89% 0.0 mm 0 W/m2
05:35 9.8 °C 8.4 °C 1009.4 hPa NNW 2.6 km/h 3.5 km/h 91% 0.0 mm 0 W/m2
05:40 9.8 °C 8.4 °C 1009.7 hPa NNW 2.6 km/h 3.5 km/h 91% 0.0 mm 0 W/m2
05:46 9.9 °C 8.7 °C 1009.7 hPa NNW 3.5 km/h 7.2 km/h 92% 0.0 mm 0 W/m2
05:51 10.1 °C 8.7 °C 1009.7 hPa NNW 1.1 km/h 7.2 km/h 91% 0.0 mm 0 W/m2
05:56 10.2 °C 8.6 °C 1009.7 hPa NNW 2.6 km/h 7.2 km/h 90% 0.0 mm 0 W/m2
06:01 10.0 °C 8.3 °C 1010.0 hPa NW 3.5 km/h 6.1 km/h 89% 0.0 mm 0 W/m2
06:06 10.0 °C 8.3 °C 1010.0 hPa NW 2.6 km/h 6.1 km/h 89% 0.0 mm 0 W/m2
06:11 10.0 °C 8.3 °C 1010.0 hPa NW 5.0 km/h 7.2 km/h 89% 0.0 mm 2 W/m2
06:16 10.3 °C 8.6 °C 1010.0 hPa NNW 6.1 km/h 11.1 km/h 89% 0.0 mm 4 W/m2
06:21 10.5 °C 8.4 °C 1010.0 hPa NNW 3.5 km/h 11.1 km/h 87% 0.0 mm 7 W/m2
06:26 10.6 °C 8.3 °C 1010.0 hPa NNW 5.0 km/h 11.1 km/h 86% 0.0 mm 12 W/m2
06:31 10.6 °C 8.3 °C 1010.0 hPa NNW 5.0 km/h 9.7 km/h 86% 0.0 mm 16 W/m2
06:36 10.6 °C 8.3 °C 1010.4 hPa NNW 5.0 km/h 7.2 km/h 86% 0.0 mm 24 W/m2
06:41 10.7 °C 8.3 °C 1010.4 hPa NNW 6.1 km/h 12.2 km/h 85% 0.0 mm 36 W/m2
06:46 10.9 °C 8.5 °C 1010.4 hPa NNW 7.2 km/h 12.2 km/h 85% 0.0 mm 43 W/m2
06:51 11.2 °C 8.2 °C 1010.4 hPa NNW 6.1 km/h 12.2 km/h 82% 0.0 mm 48 W/m2
06:56 11.3 °C 8.0 °C 1010.4 hPa NNW 5.0 km/h 12.2 km/h 80% 0.0 mm 27 W/m2
07:01 11.1 °C 7.6 °C 1010.4 hPa NNW 6.1 km/h 12.2 km/h 79% 0.0 mm 33 W/m2
07:06 10.9 °C 7.8 °C 1010.7 hPa NNW 7.2 km/h 9.7 km/h 81% 0.0 mm 34 W/m2
07:11 10.8 °C 7.7 °C 1010.7 hPa NNW 5.0 km/h 11.1 km/h 81% 0.0 mm 39 W/m2
07:16 10.8 °C 7.7 °C 1010.7 hPa NW 7.2 km/h 11.1 km/h 81% 0.0 mm 54 W/m2
07:21 10.9 °C 7.6 °C 1010.7 hPa NNW 5.0 km/h 11.1 km/h 80% 0.0 mm 36 W/m2
07:26 11.0 °C 7.5 °C 1010.7 hPa NNW 8.7 km/h 12.2 km/h 79% 0.0 mm 99 W/m2
07:31 11.3 °C 7.6 °C 1010.7 hPa NNW 8.7 km/h 12.2 km/h 78% 0.0 mm 128 W/m2
07:36 11.9 °C 7.8 °C 1010.7 hPa NNW 8.7 km/h 13.4 km/h 76% 0.0 mm 143 W/m2
07:41 12.4 °C 7.5 °C 1010.7 hPa NNW 8.7 km/h 15.8 km/h 72% 0.0 mm 163 W/m2
07:46 12.8 °C 7.4 °C 1010.7 hPa North 7.2 km/h 15.8 km/h 70% 0.0 mm 176 W/m2
07:51 13.2 °C 7.7 °C 1010.7 hPa North 6.1 km/h 14.8 km/h 69% 0.0 mm 195 W/m2
07:56 13.5 °C 7.7 °C 1011.1 hPa North 8.7 km/h 17.2 km/h 68% 0.0 mm 150 W/m2
08:01 13.5 °C 7.7 °C 1011.1 hPa North 9.7 km/h 17.2 km/h 68% 0.0 mm 210 W/m2
08:06 13.6 °C 7.6 °C 1011.1 hPa North 11.1 km/h 15.8 km/h 67% 0.0 mm 223 W/m2
08:11 14.0 °C 7.6 °C 1011.1 hPa North 9.7 km/h 17.2 km/h 65% 0.0 mm 234 W/m2
08:16 14.1 °C 7.6 °C 1011.4 hPa NNW 9.7 km/h 17.2 km/h 65% 0.0 mm 247 W/m2
08:21 14.5 °C 8.0 °C 1011.4 hPa NNW 6.1 km/h 15.8 km/h 65% 0.0 mm 261 W/m2
08:26 15.0 °C 8.0 °C 1011.1 hPa NNW 8.7 km/h 14.8 km/h 63% 0.0 mm 278 W/m2
08:31 15.4 °C 8.4 °C 1011.4 hPa NNW 8.7 km/h 14.8 km/h 63% 0.0 mm 185 W/m2
08:36 15.5 °C 8.5 °C 1011.4 hPa NNW 3.5 km/h 14.8 km/h 63% 0.0 mm 287 W/m2
08:41 15.9 °C 8.4 °C 1011.4 hPa NNW 9.7 km/h 13.4 km/h 61% 0.0 mm 318 W/m2
08:46 16.0 °C 8.0 °C 1011.4 hPa NNW 8.7 km/h 15.8 km/h 59% 0.0 mm 334 W/m2
08:51 16.2 °C 8.2 °C 1011.4 hPa North 8.7 km/h 15.8 km/h 59% 0.0 mm 355 W/m2
08:56 16.6 °C 8.3 °C 1011.7 hPa North 7.2 km/h 15.8 km/h 58% 0.0 mm 379 W/m2
09:01 17.0 °C 8.2 °C 1011.4 hPa NNW 7.2 km/h 13.4 km/h 56% 0.0 mm 400 W/m2
09:07 17.3 °C 7.9 °C 1011.4 hPa NNW 8.7 km/h 17.2 km/h 54% 0.0 mm 423 W/m2
09:12 17.6 °C 8.4 °C 1011.4 hPa North 3.5 km/h 17.2 km/h 55% 0.0 mm 452 W/m2
09:17 18.4 °C 9.2 °C 1011.4 hPa North 8.7 km/h 13.4 km/h 55% 0.0 mm 469 W/m2
09:22 18.3 °C 9.1 °C 1011.7 hPa North 11.1 km/h 15.8 km/h 55% 0.0 mm 420 W/m2
09:27 18.0 °C 8.8 °C 1011.4 hPa North 7.2 km/h 15.8 km/h 55% 0.0 mm 459 W/m2
09:32 18.2 °C 8.7 °C 1011.4 hPa NNW 6.1 km/h 15.8 km/h 54% 0.0 mm 447 W/m2
09:37 18.7 °C 8.7 °C 1011.4 hPa NNW 7.2 km/h 13.4 km/h 52% 0.0 mm 512 W/m2
09:42 19.1 °C 7.6 °C 1011.4 hPa NNW 7.2 km/h 13.4 km/h 47% 0.0 mm 564 W/m2
09:47 19.3 °C 7.7 °C 1011.4 hPa North 9.7 km/h 14.8 km/h 47% 0.0 mm 423 W/m2
09:52 19.1 °C 7.6 °C 1011.4 hPa North 6.1 km/h 14.8 km/h 47% 0.0 mm 478 W/m2
09:57 19.6 °C 7.7 °C 1011.4 hPa NNW 6.1 km/h 14.8 km/h 46% 0.0 mm 347 W/m2
10:02 19.9 °C 7.6 °C 1011.4 hPa NNW 6.1 km/h 13.4 km/h 45% 0.0 mm 620 W/m2
10:07 20.2 °C 7.2 °C 1011.1 hPa NNW 6.1 km/h 13.4 km/h 43% 0.0 mm 609 W/m2
10:12 20.4 °C 7.4 °C 1011.1 hPa NNW 7.2 km/h 13.4 km/h 43% 0.0 mm 680 W/m2
10:17 20.9 °C 6.8 °C 1011.4 hPa NNW 8.7 km/h 12.2 km/h 40% 0.0 mm 652 W/m2
10:22 21.4 °C 6.9 °C 1011.4 hPa NNW 7.2 km/h 12.2 km/h 39% 0.0 mm 720 W/m2
10:27 21.7 °C 6.8 °C 1011.4 hPa NNE 7.2 km/h 11.1 km/h 38% 0.0 mm 746 W/m2
10:32 21.4 °C 6.1 °C 1011.4 hPa NNE 9.7 km/h 17.2 km/h 37% 0.0 mm 712 W/m2
10:37 21.3 °C 6.4 °C 1011.4 hPa NNE 5.0 km/h 17.2 km/h 38% 0.0 mm 742 W/m2
10:42 21.9 °C 6.6 °C 1011.1 hPa NNE 6.1 km/h 15.8 km/h 37% 0.0 mm 717 W/m2
10:47 21.6 °C 6.3 °C 1011.1 hPa NNE 11.1 km/h 18.3 km/h 37% 0.0 mm 728 W/m2
10:52 21.5 °C 6.2 °C 1011.1 hPa North 6.1 km/h 18.3 km/h 37% 0.0 mm 746 W/m2
10:57 21.7 °C 5.6 °C 1011.1 hPa North 6.1 km/h 17.2 km/h 35% 0.0 mm 830 W/m2
11:02 22.3 °C 6.1 °C 1011.1 hPa North 6.1 km/h 17.2 km/h 35% 0.0 mm 905 W/m2
11:07 22.3 °C 5.7 °C 1011.1 hPa NNW 9.7 km/h 13.4 km/h 34% 0.0 mm 436 W/m2
11:12 22.0 °C 5.4 °C 1011.1 hPa NNW 8.7 km/h 13.4 km/h 34% 0.0 mm 560 W/m2
11:17 22.4 °C 5.3 °C 1010.7 hPa North 7.2 km/h 13.4 km/h 33% 0.0 mm 354 W/m2
11:22 22.5 °C 5.9 °C 1010.7 hPa North 8.7 km/h 14.8 km/h 34% 0.0 mm 298 W/m2
11:27 22.1 °C 5.5 °C 1010.7 hPa NNE 3.5 km/h 14.8 km/h 34% 0.0 mm 906 W/m2
11:32 23.2 °C 6.9 °C 1010.4 hPa NNE 9.7 km/h 14.8 km/h 35% 0.0 mm 930 W/m2
11:37 23.3 °C 5.7 °C 1010.7 hPa NNE 7.2 km/h 15.8 km/h 32% 0.0 mm 895 W/m2
11:42 23.3 °C 5.7 °C 1010.4 hPa NNE 5.0 km/h 15.8 km/h 32% 0.0 mm 945 W/m2
11:47 23.5 °C 5.4 °C 1010.0 hPa NNE 8.7 km/h 14.8 km/h 31% 0.0 mm 966 W/m2
11:53 24.2 °C 6.5 °C 1010.4 hPa North 7.2 km/h 14.8 km/h 32% 0.0 mm 978 W/m2
11:58 24.2 °C 4.1 °C 1010.0 hPa North 8.7 km/h 15.8 km/h 27% 0.0 mm 971 W/m2
12:03 24.5 °C 4.8 °C 1010.4 hPa North 6.1 km/h 15.8 km/h 28% 0.0 mm 801 W/m2
12:08 24.3 °C 4.1 °C 1010.0 hPa North 9.7 km/h 17.2 km/h 27% 0.0 mm 1029 W/m2
12:13 24.1 °C 3.9 °C 1010.0 hPa North 11.1 km/h 21.9 km/h 27% 0.0 mm 378 W/m2
12:18 24.3 °C 4.1 °C 1010.0 hPa North 5.0 km/h 21.9 km/h 27% 0.0 mm 978 W/m2
12:23 24.9 °C 5.2 °C 1010.0 hPa NNE 11.1 km/h 15.8 km/h 28% 0.0 mm 964 W/m2
12:28 24.9 °C 5.7 °C 1010.0 hPa North 9.7 km/h 19.5 km/h 29% 0.0 mm 948 W/m2
12:33 25.2 °C 3.8 °C 1010.0 hPa NW 6.1 km/h 19.5 km/h 25% 0.0 mm 985 W/m2
12:38 25.4 °C 3.9 °C 1009.7 hPa NW 8.7 km/h 19.5 km/h 25% 0.0 mm 997 W/m2
12:43 25.9 °C 3.8 °C 1009.7 hPa NNE 5.0 km/h 18.3 km/h 24% 0.0 mm 996 W/m2
12:48 26.3 °C 3.6 °C 1009.7 hPa NNE 11.1 km/h 17.2 km/h 23% 0.0 mm 999 W/m2
12:53 26.1 °C 2.7 °C 1009.7 hPa North 9.7 km/h 19.5 km/h 22% 0.0 mm 988 W/m2
12:58 25.6 °C 2.9 °C 1009.4 hPa North 5.0 km/h 19.5 km/h 23% 0.0 mm 978 W/m2
13:03 25.7 °C 3.1 °C 1009.4 hPa NNE 13.4 km/h 21.9 km/h 23% 0.0 mm 975 W/m2
13:08 25.8 °C 3.1 °C 1009.4 hPa NNE 7.2 km/h 21.9 km/h 23% 0.0 mm 973 W/m2
13:13 26.2 °C 2.8 °C 1009.4 hPa NNE 9.7 km/h 19.5 km/h 22% 0.0 mm 978 W/m2
13:18 26.7 °C 3.9 °C 1009.4 hPa North 3.5 km/h 19.5 km/h 23% 0.0 mm 980 W/m2
13:23 26.9 °C 3.4 °C 1009.4 hPa NW 11.1 km/h 19.5 km/h 22% 0.0 mm 982 W/m2
13:28 26.6 °C 3.2 °C 1009.4 hPa NNW 1.1 km/h 18.3 km/h 22% 0.0 mm 974 W/m2
13:33 27.0 °C 2.8 °C 1009.0 hPa NNE 7.2 km/h 17.2 km/h 21% 0.0 mm 974 W/m2
13:38 26.5 °C 2.4 °C 1009.0 hPa ENE 6.1 km/h 18.3 km/h 21% 0.0 mm 958 W/m2
13:43 26.5 °C 3.1 °C 1008.7 hPa ENE 3.5 km/h 18.3 km/h 22% 0.0 mm 951 W/m2
13:48 27.0 °C 2.8 °C 1009.0 hPa ENE 11.1 km/h 19.5 km/h 21% 0.0 mm 956 W/m2
13:53 26.8 °C 3.3 °C 1008.7 hPa NE 1.1 km/h 19.5 km/h 22% 0.0 mm 943 W/m2
13:58 27.4 °C 3.2 °C 1008.7 hPa NNE 14.8 km/h 20.9 km/h 21% 0.0 mm 947 W/m2
14:03 26.2 °C 9.1 °C 1008.4 hPa ENE 6.1 km/h 20.9 km/h 34% 0.0 mm 929 W/m2
14:08 25.2 °C 11.1 °C 1008.7 hPa SSE 18.3 km/h 27.0 km/h 41% 0.0 mm 915 W/m2
14:13 24.2 °C 11.2 °C 1008.7 hPa South 14.8 km/h 27.0 km/h 44% 0.0 mm 900 W/m2
14:18 23.7 °C 12.1 °C 1008.7 hPa South 6.1 km/h 24.5 km/h 48% 0.0 mm 889 W/m2
14:23 23.9 °C 11.9 °C 1008.7 hPa SSE 11.1 km/h 20.9 km/h 47% 0.0 mm 885 W/m2
14:28 24.1 °C 11.4 °C 1008.7 hPa SE 14.8 km/h 19.5 km/h 45% 0.0 mm 885 W/m2
14:33 24.1 °C 11.1 °C 1008.7 hPa SSE 7.2 km/h 19.5 km/h 44% 0.0 mm 879 W/m2
14:38 24.6 °C 8.9 °C 1008.7 hPa SSE 12.2 km/h 19.5 km/h 37% 0.0 mm 875 W/m2
14:43 24.9 °C 9.6 °C 1008.7 hPa SSE 14.8 km/h 20.9 km/h 38% 0.0 mm 875 W/m2
14:48 25.2 °C 8.2 °C 1008.4 hPa SSE 6.1 km/h 20.9 km/h 34% 0.0 mm 873 W/m2
15:06 25.7 °C 9.6 °C 1008.7 hPa SSE 9.7 km/h 18.3 km/h 36% 0.0 mm 804 W/m2
15:11 25.9 °C 8.8 °C 1008.4 hPa ESE 8.7 km/h 18.3 km/h 34% 0.0 mm 846 W/m2
15:16 26.3 °C 9.2 °C 1008.4 hPa East 8.7 km/h 15.8 km/h 34% 0.0 mm 772 W/m2
15:21 26.4 °C 9.3 °C 1008.4 hPa SE 7.2 km/h 14.8 km/h 34% 0.0 mm 677 W/m2
15:26 26.2 °C 9.6 °C 1008.4 hPa SE 8.7 km/h 14.8 km/h 35% 0.0 mm 371 W/m2
15:32 25.3 °C 8.8 °C 1008.4 hPa SE 7.2 km/h 18.3 km/h 35% 0.0 mm 343 W/m2
15:37 25.0 °C 8.5 °C 1008.4 hPa SSE 7.2 km/h 18.3 km/h 35% 0.0 mm 384 W/m2
15:42 24.8 °C 9.1 °C 1008.0 hPa SSE 7.2 km/h 13.4 km/h 37% 0.0 mm 540 W/m2
15:47 25.3 °C 9.2 °C 1008.4 hPa SSE 6.1 km/h 12.2 km/h 36% 0.0 mm 694 W/m2
15:52 26.2 °C 9.1 °C 1008.0 hPa SE 6.1 km/h 13.4 km/h 34% 0.0 mm 359 W/m2
15:57 26.5 °C 8.5 °C 1008.4 hPa SE 7.2 km/h 13.4 km/h 32% 0.0 mm 551 W/m2
16:02 26.8 °C 8.3 °C 1008.0 hPa SSE 7.2 km/h 15.8 km/h 31% 0.0 mm 451 W/m2
16:07 27.1 °C 9.0 °C 1008.0 hPa SSE 5.0 km/h 15.8 km/h 32% 0.0 mm 429 W/m2
16:12 27.2 °C 8.6 °C 1008.0 hPa SE 6.1 km/h 15.8 km/h 31% 0.0 mm 482 W/m2
16:17 26.9 °C 9.3 °C 1008.0 hPa SE 3.5 km/h 15.8 km/h 33% 0.0 mm 623 W/m2
16:22 27.2 °C 9.1 °C 1008.0 hPa SSE 3.5 km/h 14.8 km/h 32% 0.0 mm 663 W/m2
16:27 27.7 °C 7.6 °C 1008.0 hPa SSE 5.0 km/h 15.8 km/h 28% 0.0 mm 634 W/m2
16:32 27.4 °C 8.8 °C 1007.7 hPa SE 6.1 km/h 18.3 km/h 31% 0.0 mm 631 W/m2
16:37 27.1 °C 8.6 °C 1008.4 hPa SSE 6.1 km/h 18.3 km/h 31% 0.0 mm 604 W/m2
16:42 27.1 °C 8.6 °C 1008.0 hPa SSE 5.0 km/h 15.8 km/h 31% 0.0 mm 592 W/m2
16:47 26.8 °C 9.7 °C 1008.4 hPa SE 5.0 km/h 17.2 km/h 34% 0.0 mm 561 W/m2
16:52 26.6 °C 10.3 °C 1008.0 hPa SSE 7.2 km/h 17.2 km/h 36% 0.0 mm 561 W/m2
16:57 26.8 °C 10.1 °C 1008.0 hPa SSE 8.7 km/h 15.8 km/h 35% 0.0 mm 544 W/m2
17:02 26.9 °C 9.7 °C 1008.0 hPa SE 2.6 km/h 15.8 km/h 34% 0.0 mm 529 W/m2
17:07 27.0 °C 8.9 °C 1008.0 hPa SE 5.0 km/h 15.8 km/h 32% 0.0 mm 515 W/m2
17:12 27.2 °C 9.1 °C 1007.7 hPa SE 8.7 km/h 13.4 km/h 32% 0.0 mm 499 W/m2
17:17 27.2 °C 10.4 °C 1007.7 hPa ESE 6.1 km/h 13.4 km/h 35% 0.0 mm 481 W/m2
17:22 27.0 °C 10.3 °C 1007.7 hPa ESE 6.1 km/h 13.4 km/h 35% 0.0 mm 466 W/m2
17:27 26.7 °C 9.6 °C 1007.7 hPa ESE 7.2 km/h 13.4 km/h 34% 0.0 mm 453 W/m2
17:32 26.6 °C 9.9 °C 1007.7 hPa SE 7.2 km/h 15.8 km/h 35% 0.0 mm 434 W/m2
17:37 26.0 °C 8.9 °C 1007.7 hPa ESE 7.2 km/h 17.2 km/h 34% 0.0 mm 419 W/m2
17:42 25.6 °C 9.4 °C 1007.3 hPa East 7.2 km/h 17.2 km/h 36% 0.0 mm 402 W/m2
17:47 26.2 °C 8.7 °C 1007.3 hPa East 3.5 km/h 15.8 km/h 33% 0.0 mm 388 W/m2
17:52 26.7 °C 9.6 °C 1007.7 hPa SE 2.6 km/h 12.2 km/h 34% 0.0 mm 376 W/m2
17:57 27.2 °C 9.1 °C 1007.3 hPa SE 6.1 km/h 11.1 km/h 32% 0.0 mm 362 W/m2
18:02 27.4 °C 10.2 °C 1007.3 hPa SSE 5.0 km/h 11.1 km/h 34% 0.0 mm 346 W/m2
18:07 27.5 °C 11.6 °C 1007.3 hPa SE 5.0 km/h 11.1 km/h 37% 0.0 mm 332 W/m2
18:12 27.4 °C 11.4 °C 1007.7 hPa SSE 6.1 km/h 12.2 km/h 37% 0.0 mm 317 W/m2
18:17 27.1 °C 10.8 °C 1007.7 hPa SSE 6.1 km/h 12.2 km/h 36% 0.0 mm 305 W/m2
18:22 26.9 °C 10.6 °C 1007.7 hPa SE 5.0 km/h 12.2 km/h 36% 0.0 mm 288 W/m2
18:27 27.1 °C 10.3 °C 1008.0 hPa SE 3.5 km/h 11.1 km/h 35% 0.0 mm 275 W/m2
18:32 27.2 °C 11.3 °C 1008.0 hPa SE 3.5 km/h 9.7 km/h 37% 0.0 mm 261 W/m2
18:37 27.0 °C 12.3 °C 1008.0 hPa SSE 7.2 km/h 11.1 km/h 40% 0.0 mm 245 W/m2
18:42 26.7 °C 12.4 °C 1007.7 hPa SE 5.0 km/h 12.2 km/h 41% 0.0 mm 231 W/m2
18:47 27.1 °C 11.6 °C 1007.7 hPa ESE 2.6 km/h 12.2 km/h 38% 0.0 mm 218 W/m2
18:53 27.5 °C 11.1 °C 1008.0 hPa SE 2.6 km/h 8.7 km/h 36% 0.0 mm 203 W/m2
18:58 27.1 °C 11.6 °C 1008.0 hPa SSE 2.6 km/h 8.7 km/h 38% 0.0 mm 108 W/m2
19:03 26.0 °C 11.7 °C 1008.0 hPa Calm   8.7 km/h 41% 0.0 mm 57 W/m2
19:08 25.4 °C 11.6 °C 1008.4 hPa SSE 1.1 km/h 5.0 km/h 42% 0.0 mm 55 W/m2
19:13 25.0 °C 10.8 °C 1008.0 hPa East 2.6 km/h 3.5 km/h 41% 0.0 mm 55 W/m2
19:18 24.7 °C 11.7 °C 1008.4 hPa ESE 3.5 km/h 6.1 km/h 44% 0.0 mm 58 W/m2
19:23 24.4 °C 12.4 °C 1008.4 hPa SSE 3.5 km/h 7.2 km/h 47% 0.0 mm 52 W/m2
19:28 24.2 °C 13.1 °C 1008.4 hPa SSE 5.0 km/h 7.2 km/h 50% 0.0 mm 49 W/m2
19:33 23.6 °C 14.1 °C 1008.4 hPa SSE 3.5 km/h 8.7 km/h 55% 0.0 mm 43 W/m2
19:38 22.8 °C 14.4 °C 1008.4 hPa SSE 1.1 km/h 8.7 km/h 59% 0.0 mm 40 W/m2
19:43 22.5 °C 14.4 °C 1008.4 hPa SSE 1.1 km/h 8.7 km/h 60% 0.0 mm 57 W/m2
19:48 22.9 °C 14.5 °C 1008.4 hPa South 3.5 km/h 5.0 km/h 59% 0.0 mm 82 W/m2
19:53 22.7 °C 14.8 °C 1008.4 hPa WSW 2.6 km/h 7.2 km/h 61% 0.0 mm 70 W/m2
19:58 23.0 °C 14.3 °C 1008.4 hPa SW 1.1 km/h 7.2 km/h 58% 0.0 mm 56 W/m2
20:03 22.6 °C 14.4 °C 1008.7 hPa Calm   5.0 km/h 60% 0.0 mm 32 W/m2
20:08 22.0 °C 14.2 °C 1008.4 hPa Calm   5.0 km/h 61% 0.0 mm 21 W/m2
20:13 21.4 °C 13.8 °C 1008.7 hPa WNW 2.6 km/h 3.5 km/h 62% 0.0 mm 16 W/m2
20:18 21.0 °C 13.7 °C 1008.4 hPa Calm   5.0 km/h 63% 0.0 mm 13 W/m2
20:23 20.8 °C 13.8 °C 1008.7 hPa WNW 1.1 km/h 5.0 km/h 64% 0.0 mm 9 W/m2
20:28 20.5 °C 13.7 °C 1008.7 hPa Calm   3.5 km/h 65% 0.0 mm 5 W/m2
20:33 20.2 °C 13.7 °C 1008.7 hPa Calm   3.5 km/h 66% 0.0 mm 3 W/m2
20:38 19.8 °C 13.3 °C 1008.7 hPa Calm   3.5 km/h 66% 0.0 mm 1 W/m2
20:43 19.6 °C 13.3 °C 1008.7 hPa Calm   2.6 km/h 67% 0.0 mm 0 W/m2
20:48 19.5 °C 13.2 °C 1008.7 hPa Calm   2.6 km/h 67% 0.0 mm 0 W/m2
20:53 19.3 °C 13.1 °C 1008.7 hPa Calm   2.6 km/h 67% 0.0 mm 0 W/m2
20:58 19.2 °C 13.4 °C 1009.0 hPa Calm   2.6 km/h 69% 0.0 mm 0 W/m2
21:03 19.3 °C 13.7 °C 1009.0 hPa North 2.6 km/h 3.5 km/h 70% 0.0 mm 0 W/m2
21:08 19.3 °C 13.5 °C 1009.0 hPa North 2.6 km/h 3.5 km/h 69% 0.0 mm 0 W/m2
21:13 19.3 °C 13.7 °C 1009.0 hPa Calm   3.5 km/h 70% 0.0 mm 0 W/m2
21:18 19.2 °C 13.6 °C 1009.4 hPa Calm   3.5 km/h 70% 0.0 mm 0 W/m2
21:23 18.9 °C 13.8 °C 1009.4 hPa Calm   3.5 km/h 72% 0.0 mm 0 W/m2
21:28 18.7 °C 13.6 °C 1009.4 hPa Calm     72% 0.0 mm 0 W/m2
21:33 18.6 °C 13.7 °C 1009.4 hPa WNW 2.6 km/h 3.5 km/h 73% 0.0 mm 0 W/m2
21:38 18.5 °C 13.6 °C 1009.4 hPa Calm   3.5 km/h 73% 0.0 mm 0 W/m2
21:43 18.2 °C 13.3 °C 1009.4 hPa Calm   3.5 km/h 73% 0.0 mm 0 W/m2
21:48 18.1 °C 13.2 °C 1009.7 hPa NW 1.1 km/h 3.5 km/h 73% 0.0 mm 0 W/m2
21:53 18.0 °C 13.3 °C 1009.4 hPa Calm   5.0 km/h 74% 0.0 mm 0 W/m2
21:58 17.8 °C 12.9 °C 1009.7 hPa NNW 1.1 km/h 5.0 km/h 73% 0.0 mm 0 W/m2
22:03 17.7 °C 12.8 °C 1009.7 hPa NNW 1.1 km/h 5.0 km/h 73% 0.0 mm 0 W/m2
22:08 17.7 °C 12.8 °C 1010.0 hPa NNW 2.6 km/h 5.0 km/h 73% 0.0 mm 0 W/m2
22:13 17.6 °C 12.7 °C 1009.7 hPa North 3.5 km/h 5.0 km/h 73% 0.0 mm 0 W/m2
22:18 17.5 °C 12.6 °C 1010.0 hPa North 3.5 km/h 5.0 km/h 73% 0.0 mm 0 W/m2
22:23 17.3 °C 12.6 °C 1010.0 hPa NNW 2.6 km/h 5.0 km/h 74% 0.0 mm 0 W/m2
22:28 17.2 °C 12.6 °C 1010.0 hPa NNW 2.6 km/h 5.0 km/h 74% 0.0 mm 0 W/m2
22:33 17.1 °C 12.4 °C 1010.0 hPa Calm   3.5 km/h 74% 0.0 mm 0 W/m2
22:38 17.1 °C 12.7 °C 1010.0 hPa NNW 2.6 km/h 5.0 km/h 75% 0.0 mm 0 W/m2
22:43 17.0 °C 12.3 °C 1010.0 hPa NNW 1.1 km/h 5.0 km/h 74% 0.0 mm 0 W/m2
22:48 16.9 °C 12.4 °C 1010.0 hPa Calm   6.1 km/h 75% 0.0 mm 0 W/m2
22:53 16.8 °C 12.3 °C 1010.0 hPa NNW 2.6 km/h 6.1 km/h 75% 0.0 mm 0 W/m2
22:58 16.7 °C 12.3 °C 1010.0 hPa NNW 1.1 km/h 5.0 km/h 75% 0.0 mm 0 W/m2
23:03 16.7 °C 12.4 °C 1010.0 hPa NNW 2.6 km/h 5.0 km/h 76% 0.0 mm 0 W/m2
23:08 16.7 °C 12.4 °C 1010.4 hPa NW 3.5 km/h 6.1 km/h 76% 0.0 mm 0 W/m2
23:13 16.7 °C 12.3 °C 1010.0 hPa NW 2.6 km/h 6.1 km/h 75% 0.0 mm 0 W/m2
23:18 16.7 °C 12.3 °C 1010.0 hPa NW 2.6 km/h 5.0 km/h 75% 0.0 mm 0 W/m2
23:23 16.8 °C 12.3 °C 1010.0 hPa NNW 1.1 km/h 5.0 km/h 75% 0.0 mm 0 W/m2
23:28 17.0 °C 12.1 °C 1010.0 hPa NNW 2.6 km/h 6.1 km/h 73% 0.0 mm 0 W/m2
23:33 17.5 °C 12.4 °C 1010.0 hPa NNW 2.6 km/h 8.7 km/h 72% 0.0 mm 0 W/m2
23:38 17.9 °C 12.3 °C 1010.0 hPa NNW 2.6 km/h 8.7 km/h 70% 0.0 mm 0 W/m2
23:43 18.0 °C 12.0 °C 1010.0 hPa NNW 2.6 km/h 7.2 km/h 68% 0.0 mm 0 W/m2
23:48 18.0 °C 12.0 °C 1010.0 hPa NNW 6.1 km/h 9.7 km/h 68% 0.0 mm 0 W/m2
23:53 18.0 °C 12.0 °C 1010.0 hPa NW 5.0 km/h 9.7 km/h 68% 0.0 mm 0 W/m2
23:58 17.9 °C 11.9 °C 1010.0 hPa NNW 3.5 km/h 8.7 km/h 68% 0.0 mm 0 W/m2
Northern Hawkes Bay. New Zealand Historic Data
Compliments of Weather Underground - 2 mb